sensor_id;sensor_type;location;lat;lon;timestamp;temperature;humidity
65036;DHT22;51603;49.300;8.880;2022-09-21T00:01:10;7.40;99.90
65036;DHT22;51603;49.300;8.880;2022-09-21T00:03:36;7.30;99.90
65036;DHT22;51603;49.300;8.880;2022-09-21T00:06:16;7.30;99.90
65036;DHT22;51603;49.300;8.880;2022-09-21T00:08:43;7.30;99.90
65036;DHT22;51603;49.300;8.880;2022-09-21T00:11:19;7.30;99.90
65036;DHT22;51603;49.300;8.880;2022-09-21T00:13:46;7.30;99.90
65036;DHT22;51603;49.300;8.880;2022-09-21T00:16:13;7.30;99.90
65036;DHT22;51603;49.300;8.880;2022-09-21T00:18:39;7.30;99.90
65036;DHT22;51603;49.300;8.880;2022-09-21T00:21:10;7.20;99.90
65036;DHT22;51603;49.300;8.880;2022-09-21T00:23:36;7.10;99.90
65036;DHT22;51603;49.300;8.880;2022-09-21T00:26:07;6.90;99.90
65036;DHT22;51603;49.300;8.880;2022-09-21T00:28:33;6.90;99.90
65036;DHT22;51603;49.300;8.880;2022-09-21T00:31:10;6.90;99.90
65036;DHT22;51603;49.300;8.880;2022-09-21T00:33:37;6.90;99.90
65036;DHT22;51603;49.300;8.880;2022-09-21T00:36:05;7.00;99.90
65036;DHT22;51603;49.300;8.880;2022-09-21T00:38:32;7.00;99.90
65036;DHT22;51603;49.300;8.880;2022-09-21T00:40:58;7.00;99.90
65036;DHT22;51603;49.300;8.880;2022-09-21T00:43:24;6.90;99.90
65036;DHT22;51603;49.300;8.880;2022-09-21T00:45:54;6.90;99.90
65036;DHT22;51603;49.300;8.880;2022-09-21T00:48:21;6.90;99.90
65036;DHT22;51603;49.300;8.880;2022-09-21T00:50:51;6.90;99.90
65036;DHT22;51603;49.300;8.880;2022-09-21T00:53:18;6.90;99.90
65036;DHT22;51603;49.300;8.880;2022-09-21T00:55:48;6.90;99.90
65036;DHT22;51603;49.300;8.880;2022-09-21T00:58:19;6.70;99.90
65036;DHT22;51603;49.300;8.880;2022-09-21T01:01:22;6.60;99.90
65036;DHT22;51603;49.300;8.880;2022-09-21T01:03:49;6.70;99.90
65036;DHT22;51603;49.300;8.880;2022-09-21T01:06:18;6.70;99.90
65036;DHT22;51603;49.300;8.880;2022-09-21T01:08:46;6.70;99.90
65036;DHT22;51603;49.300;8.880;2022-09-21T01:14:15;6.80;99.90
65036;DHT22;51603;49.300;8.880;2022-09-21T01:16:58;6.80;99.90
65036;DHT22;51603;49.300;8.880;2022-09-21T01:30:00;6.50;99.90
65036;DHT22;51603;49.300;8.880;2022-09-21T01:32:36;6.50;99.90
65036;DHT22;51603;49.300;8.880;2022-09-21T01:35:54;6.50;99.90
65036;DHT22;51603;49.300;8.880;2022-09-21T01:38:11;6.60;99.90
65036;DHT22;51603;49.300;8.880;2022-09-21T01:40:42;6.60;99.90
65036;DHT22;51603;49.300;8.880;2022-09-21T01:43:13;6.60;99.90
65036;DHT22;51603;49.300;8.880;2022-09-21T01:45:44;6.60;99.90
65036;DHT22;51603;49.300;8.880;2022-09-21T01:48:11;6.60;99.90
65036;DHT22;51603;49.300;8.880;2022-09-21T01:50:41;6.60;99.90
65036;DHT22;51603;49.300;8.880;2022-09-21T01:53:36;6.50;99.90
65036;DHT22;51603;49.300;8.880;2022-09-21T01:56:10;6.50;99.90
65036;DHT22;51603;49.300;8.880;2022-09-21T01:59:05;6.50;99.90
65036;DHT22;51603;49.300;8.880;2022-09-21T02:01:34;6.50;99.90
65036;DHT22;51603;49.300;8.880;2022-09-21T02:04:07;6.50;99.90
65036;DHT22;51603;49.300;8.880;2022-09-21T02:06:33;6.40;99.90
65036;DHT22;51603;49.300;8.880;2022-09-21T02:08:59;6.40;99.90
65036;DHT22;51603;49.300;8.880;2022-09-21T02:11:25;6.40;99.90
65036;DHT22;51603;49.300;8.880;2022-09-21T02:13:52;6.30;99.90
65036;DHT22;51603;49.300;8.880;2022-09-21T02:16:35;6.30;99.90
65036;DHT22;51603;49.300;8.880;2022-09-21T02:22:34;6.30;99.90
65036;DHT22;51603;49.300;8.880;2022-09-21T02:25:10;6.30;99.90
65036;DHT22;51603;49.300;8.880;2022-09-21T02:27:55;6.30;99.90
65036;DHT22;51603;49.300;8.880;2022-09-21T02:30:25;6.30;99.90
65036;DHT22;51603;49.300;8.880;2022-09-21T02:33:20;6.00;99.90
65036;DHT22;51603;49.300;8.880;2022-09-21T02:35:51;6.10;99.90
65036;DHT22;51603;49.300;8.880;2022-09-21T02:40:51;6.10;99.90
65036;DHT22;51603;49.300;8.880;2022-09-21T02:43:27;6.00;99.90
65036;DHT22;51603;49.300;8.880;2022-09-21T02:46:00;5.80;99.90
65036;DHT22;51603;49.300;8.880;2022-09-21T02:48:34;5.80;99.90
65036;DHT22;51603;49.300;8.880;2022-09-21T02:51:10;5.90;99.90
65036;DHT22;51603;49.300;8.880;2022-09-21T02:53:39;5.90;99.90
65036;DHT22;51603;49.300;8.880;2022-09-21T02:56:07;6.00;99.90
65036;DHT22;51603;49.300;8.880;2022-09-21T02:58:36;6.00;99.90
65036;DHT22;51603;49.300;8.880;2022-09-21T03:01:05;6.00;99.90
65036;DHT22;51603;49.300;8.880;2022-09-21T03:03:32;6.00;99.90
65036;DHT22;51603;49.300;8.880;2022-09-21T03:05:57;6.00;99.90
65036;DHT22;51603;49.300;8.880;2022-09-21T03:08:23;6.00;99.90
65036;DHT22;51603;49.300;8.880;2022-09-21T03:10:48;6.00;99.90
65036;DHT22;51603;49.300;8.880;2022-09-21T03:13:15;6.00;99.90
65036;DHT22;51603;49.300;8.880;2022-09-21T03:15:40;6.00;99.90
65036;DHT22;51603;49.300;8.880;2022-09-21T03:18:08;6.00;99.90
65036;DHT22;51603;49.300;8.880;2022-09-21T03:20:38;6.00;99.90
65036;DHT22;51603;49.300;8.880;2022-09-21T03:23:04;6.00;99.90
65036;DHT22;51603;49.300;8.880;2022-09-21T03:25:30;6.00;99.90
65036;DHT22;51603;49.300;8.880;2022-09-21T03:27:56;6.00;99.90
65036;DHT22;51603;49.300;8.880;2022-09-21T03:30:24;6.00;99.90
65036;DHT22;51603;49.300;8.880;2022-09-21T03:32:51;6.00;99.90
65036;DHT22;51603;49.300;8.880;2022-09-21T03:35:18;5.90;99.90
65036;DHT22;51603;49.300;8.880;2022-09-21T03:37:44;5.90;99.90
65036;DHT22;51603;49.300;8.880;2022-09-21T03:40:13;5.90;99.90
65036;DHT22;51603;49.300;8.880;2022-09-21T03:42:40;5.90;99.90
65036;DHT22;51603;49.300;8.880;2022-09-21T03:45:06;5.80;99.90
65036;DHT22;51603;49.300;8.880;2022-09-21T03:47:32;5.80;99.90
65036;DHT22;51603;49.300;8.880;2022-09-21T03:49:58;5.80;99.90
65036;DHT22;51603;49.300;8.880;2022-09-21T03:52:23;5.80;99.90
65036;DHT22;51603;49.300;8.880;2022-09-21T03:54:49;5.80;99.90
65036;DHT22;51603;49.300;8.880;2022-09-21T03:57:14;5.80;99.90
65036;DHT22;51603;49.300;8.880;2022-09-21T03:59:40;5.80;99.90
65036;DHT22;51603;49.300;8.880;2022-09-21T04:02:06;5.80;99.90
65036;DHT22;51603;49.300;8.880;2022-09-21T04:04:32;5.80;99.90
65036;DHT22;51603;49.300;8.880;2022-09-21T04:06:58;5.80;99.90
65036;DHT22;51603;49.300;8.880;2022-09-21T04:09:24;5.80;99.90
65036;DHT22;51603;49.300;8.880;2022-09-21T04:11:49;5.70;99.90
65036;DHT22;51603;49.300;8.880;2022-09-21T04:14:15;5.70;99.90
65036;DHT22;51603;49.300;8.880;2022-09-21T04:16:41;5.70;99.90
65036;DHT22;51603;49.300;8.880;2022-09-21T04:19:07;5.70;99.90
65036;DHT22;51603;49.300;8.880;2022-09-21T04:21:33;5.70;99.90
65036;DHT22;51603;49.300;8.880;2022-09-21T04:23:58;5.70;99.90
65036;DHT22;51603;49.300;8.880;2022-09-21T04:26:27;5.60;99.90
65036;DHT22;51603;49.300;8.880;2022-09-21T04:28:53;5.60;99.90
65036;DHT22;51603;49.300;8.880;2022-09-21T04:31:20;5.60;99.90
65036;DHT22;51603;49.300;8.880;2022-09-21T04:33:50;5.60;99.90
65036;DHT22;51603;49.300;8.880;2022-09-21T04:36:20;5.60;99.90
65036;DHT22;51603;49.300;8.880;2022-09-21T04:38:46;5.50;99.90
65036;DHT22;51603;49.300;8.880;2022-09-21T04:41:13;5.50;99.90
65036;DHT22;51603;49.300;8.880;2022-09-21T04:43:43;5.50;99.90
65036;DHT22;51603;49.300;8.880;2022-09-21T04:46:11;5.50;99.90
65036;DHT22;51603;49.300;8.880;2022-09-21T04:48:37;5.50;99.90
65036;DHT22;51603;49.300;8.880;2022-09-21T04:51:04;5.50;99.90
65036;DHT22;51603;49.300;8.880;2022-09-21T04:53:32;5.50;99.90
65036;DHT22;51603;49.300;8.880;2022-09-21T04:55:57;5.50;99.90
65036;DHT22;51603;49.300;8.880;2022-09-21T04:58:23;5.40;99.90
65036;DHT22;51603;49.300;8.880;2022-09-21T05:00:50;5.40;99.90
65036;DHT22;51603;49.300;8.880;2022-09-21T05:03:17;5.40;99.90
65036;DHT22;51603;49.300;8.880;2022-09-21T05:05:47;5.40;99.90
65036;DHT22;51603;49.300;8.880;2022-09-21T05:08:12;5.40;99.90
65036;DHT22;51603;49.300;8.880;2022-09-21T05:10:38;5.40;99.90
65036;DHT22;51603;49.300;8.880;2022-09-21T05:13:03;5.40;99.90
65036;DHT22;51603;49.300;8.880;2022-09-21T05:15:29;5.40;99.90
65036;DHT22;51603;49.300;8.880;2022-09-21T05:17:54;5.40;99.90
65036;DHT22;51603;49.300;8.880;2022-09-21T05:20:20;5.40;99.90
65036;DHT22;51603;49.300;8.880;2022-09-21T05:22:45;5.40;99.90
65036;DHT22;51603;49.300;8.880;2022-09-21T05:25:11;5.40;99.90
65036;DHT22;51603;49.300;8.880;2022-09-21T05:27:36;5.40;99.90
65036;DHT22;51603;49.300;8.880;2022-09-21T05:30:02;5.40;99.90
65036;DHT22;51603;49.300;8.880;2022-09-21T05:35:23;5.40;99.90
65036;DHT22;51603;49.300;8.880;2022-09-21T05:38:00;5.40;99.90
65036;DHT22;51603;49.300;8.880;2022-09-21T05:40:28;5.40;99.90
65036;DHT22;51603;49.300;8.880;2022-09-21T05:42:54;5.40;99.90
65036;DHT22;51603;49.300;8.880;2022-09-21T05:45:21;5.40;99.90
65036;DHT22;51603;49.300;8.880;2022-09-21T05:50:48;5.40;99.90
65036;DHT22;51603;49.300;8.880;2022-09-21T05:56:10;5.40;99.90
65036;DHT22;51603;49.300;8.880;2022-09-21T05:59:00;5.40;99.90
65036;DHT22;51603;49.300;8.880;2022-09-21T06:01:57;5.40;99.90
65036;DHT22;51603;49.300;8.880;2022-09-21T06:04:24;5.50;99.90
65036;DHT22;51603;49.300;8.880;2022-09-21T06:06:50;5.40;99.90
65036;DHT22;51603;49.300;8.880;2022-09-21T06:09:15;5.50;99.90
65036;DHT22;51603;49.300;8.880;2022-09-21T06:11:41;5.50;99.90
65036;DHT22;51603;49.300;8.880;2022-09-21T06:14:06;5.60;99.90
65036;DHT22;51603;49.300;8.880;2022-09-21T06:16:37;5.60;99.90
65036;DHT22;51603;49.300;8.880;2022-09-21T06:19:02;5.60;99.90
65036;DHT22;51603;49.300;8.880;2022-09-21T06:21:28;5.60;99.90
65036;DHT22;51603;49.300;8.880;2022-09-21T06:23:53;5.60;99.90
65036;DHT22;51603;49.300;8.880;2022-09-21T06:26:19;5.50;99.90
65036;DHT22;51603;49.300;8.880;2022-09-21T06:28:44;5.50;99.90
65036;DHT22;51603;49.300;8.880;2022-09-21T06:31:10;5.50;99.90
65036;DHT22;51603;49.300;8.880;2022-09-21T06:33:35;5.50;99.90
65036;DHT22;51603;49.300;8.880;2022-09-21T06:36:02;5.60;99.90
65036;DHT22;51603;49.300;8.880;2022-09-21T06:38:28;5.70;99.90
65036;DHT22;51603;49.300;8.880;2022-09-21T06:40:54;5.70;99.90
65036;DHT22;51603;49.300;8.880;2022-09-21T06:43:20;5.80;99.90
65036;DHT22;51603;49.300;8.880;2022-09-21T06:45:53;5.90;99.90
65036;DHT22;51603;49.300;8.880;2022-09-21T06:48:19;5.90;99.90
65036;DHT22;51603;49.300;8.880;2022-09-21T06:50:44;6.00;99.90
65036;DHT22;51603;49.300;8.880;2022-09-21T06:53:10;6.20;99.90
65036;DHT22;51603;49.300;8.880;2022-09-21T06:55:35;6.30;99.90
65036;DHT22;51603;49.300;8.880;2022-09-21T06:58:02;6.40;99.90
65036;DHT22;51603;49.300;8.880;2022-09-21T07:00:28;6.50;99.90
65036;DHT22;51603;49.300;8.880;2022-09-21T07:02:54;6.70;99.90
65036;DHT22;51603;49.300;8.880;2022-09-21T07:05:19;6.70;99.90
65036;DHT22;51603;49.300;8.880;2022-09-21T07:07:45;6.80;99.90
65036;DHT22;51603;49.300;8.880;2022-09-21T07:10:10;6.90;99.90
65036;DHT22;51603;49.300;8.880;2022-09-21T07:12:36;7.00;99.90
65036;DHT22;51603;49.300;8.880;2022-09-21T07:15:03;7.10;99.90
65036;DHT22;51603;49.300;8.880;2022-09-21T07:17:33;7.10;99.90
65036;DHT22;51603;49.300;8.880;2022-09-21T07:20:00;7.20;99.90
65036;DHT22;51603;49.300;8.880;2022-09-21T07:22:28;7.20;99.90
65036;DHT22;51603;49.300;8.880;2022-09-21T07:24:54;7.30;99.90
65036;DHT22;51603;49.300;8.880;2022-09-21T07:27:19;7.40;99.90
65036;DHT22;51603;49.300;8.880;2022-09-21T07:29:45;7.50;99.90
65036;DHT22;51603;49.300;8.880;2022-09-21T07:32:11;7.60;99.90
65036;DHT22;51603;49.300;8.880;2022-09-21T07:34:37;7.70;99.90
65036;DHT22;51603;49.300;8.880;2022-09-21T07:37:03;7.80;99.90
65036;DHT22;51603;49.300;8.880;2022-09-21T07:39:29;7.90;99.90
65036;DHT22;51603;49.300;8.880;2022-09-21T07:41:55;8.10;99.90
65036;DHT22;51603;49.300;8.880;2022-09-21T07:44:23;8.30;99.90
65036;DHT22;51603;49.300;8.880;2022-09-21T07:46:48;8.50;99.90
65036;DHT22;51603;49.300;8.880;2022-09-21T07:49:14;8.70;99.90
65036;DHT22;51603;49.300;8.880;2022-09-21T07:51:39;8.90;99.90
65036;DHT22;51603;49.300;8.880;2022-09-21T07:54:05;9.10;99.90
65036;DHT22;51603;49.300;8.880;2022-09-21T07:56:31;9.30;99.90
65036;DHT22;51603;49.300;8.880;2022-09-21T07:58:56;9.50;99.90
65036;DHT22;51603;49.300;8.880;2022-09-21T08:01:36;9.60;99.90
65036;DHT22;51603;49.300;8.880;2022-09-21T08:04:03;9.70;99.90
65036;DHT22;51603;49.300;8.880;2022-09-21T08:06:31;9.90;99.90
65036;DHT22;51603;49.300;8.880;2022-09-21T08:08:58;10.00;99.90
65036;DHT22;51603;49.300;8.880;2022-09-21T08:11:24;10.20;99.90
65036;DHT22;51603;49.300;8.880;2022-09-21T08:13:56;10.30;99.90
65036;DHT22;51603;49.300;8.880;2022-09-21T08:16:22;10.50;99.90
65036;DHT22;51603;49.300;8.880;2022-09-21T08:18:48;10.70;99.90
65036;DHT22;51603;49.300;8.880;2022-09-21T08:21:14;10.90;99.90
65036;DHT22;51603;49.300;8.880;2022-09-21T08:23:40;11.10;99.90
65036;DHT22;51603;49.300;8.880;2022-09-21T08:26:12;11.20;99.90
65036;DHT22;51603;49.300;8.880;2022-09-21T08:28:47;11.40;99.90
65036;DHT22;51603;49.300;8.880;2022-09-21T08:31:14;11.60;99.90
65036;DHT22;51603;49.300;8.880;2022-09-21T08:33:39;11.70;99.90
65036;DHT22;51603;49.300;8.880;2022-09-21T08:36:05;11.90;99.90
65036;DHT22;51603;49.300;8.880;2022-09-21T08:38:33;12.20;99.90
65036;DHT22;51603;49.300;8.880;2022-09-21T08:41:00;12.30;99.90
65036;DHT22;51603;49.300;8.880;2022-09-21T08:43:41;12.50;99.90
65036;DHT22;51603;49.300;8.880;2022-09-21T08:46:19;12.60;99.90
65036;DHT22;51603;49.300;8.880;2022-09-21T08:49:05;12.80;99.90
65036;DHT22;51603;49.300;8.880;2022-09-21T08:51:36;12.90;99.90
65036;DHT22;51603;49.300;8.880;2022-09-21T08:54:18;12.90;99.90
65036;DHT22;51603;49.300;8.880;2022-09-21T08:56:45;13.00;99.90
65036;DHT22;51603;49.300;8.880;2022-09-21T08:59:12;13.00;99.90
65036;DHT22;51603;49.300;8.880;2022-09-21T09:07:14;13.30;99.90
65036;DHT22;51603;49.300;8.880;2022-09-21T09:13:05;13.60;99.90
65036;DHT22;51603;49.300;8.880;2022-09-21T09:18:43;14.00;99.90
65036;DHT22;51603;49.300;8.880;2022-09-21T09:21:21;14.30;99.90
65036;DHT22;51603;49.300;8.880;2022-09-21T09:23:50;14.60;99.90
65036;DHT22;51603;49.300;8.880;2022-09-21T09:28:59;15.00;99.90
65036;DHT22;51603;49.300;8.880;2022-09-21T09:31:34;15.10;99.90
65036;DHT22;51603;49.300;8.880;2022-09-21T09:34:23;15.20;99.90
65036;DHT22;51603;49.300;8.880;2022-09-21T09:36:56;15.20;99.90
65036;DHT22;51603;49.300;8.880;2022-09-21T09:39:22;15.30;99.90
65036;DHT22;51603;49.300;8.880;2022-09-21T09:42:15;15.40;99.90
65036;DHT22;51603;49.300;8.880;2022-09-21T09:44:53;15.40;99.90
65036;DHT22;51603;49.300;8.880;2022-09-21T09:47:44;15.60;99.90
65036;DHT22;51603;49.300;8.880;2022-09-21T09:50:24;15.90;99.90
65036;DHT22;51603;49.300;8.880;2022-09-21T09:52:53;16.30;99.90
65036;DHT22;51603;49.300;8.880;2022-09-21T09:55:35;16.10;99.90
65036;DHT22;51603;49.300;8.880;2022-09-21T09:58:02;16.10;99.90
65036;DHT22;51603;49.300;8.880;2022-09-21T10:00:28;16.10;99.90
65036;DHT22;51603;49.300;8.880;2022-09-21T10:02:55;16.30;99.90
65036;DHT22;51603;49.300;8.880;2022-09-21T10:07:53;16.60;99.90
65036;DHT22;51603;49.300;8.880;2022-09-21T10:12:49;16.80;99.80
65036;DHT22;51603;49.300;8.880;2022-09-21T10:15:16;16.90;99.70
65036;DHT22;51603;49.300;8.880;2022-09-21T10:17:44;17.10;99.10
65036;DHT22;51603;49.300;8.880;2022-09-21T10:20:18;17.40;99.70
65036;DHT22;51603;49.300;8.880;2022-09-21T10:22:47;17.70;98.00
65036;DHT22;51603;49.300;8.880;2022-09-21T10:25:17;17.40;98.10
65036;DHT22;51603;49.300;8.880;2022-09-21T10:27:47;17.20;95.50
65036;DHT22;51603;49.300;8.880;2022-09-21T10:32:56;17.10;97.10
65036;DHT22;51603;49.300;8.880;2022-09-21T10:35:22;17.10;95.20
65036;DHT22;51603;49.300;8.880;2022-09-21T10:37:48;17.20;98.10
65036;DHT22;51603;49.300;8.880;2022-09-21T10:40:35;17.30;96.90
65036;DHT22;51603;49.300;8.880;2022-09-21T10:43:01;17.10;96.10
65036;DHT22;51603;49.300;8.880;2022-09-21T10:45:31;17.30;97.90
65036;DHT22;51603;49.300;8.880;2022-09-21T10:48:11;17.70;97.60
65036;DHT22;51603;49.300;8.880;2022-09-21T10:50:45;17.90;95.70
65036;DHT22;51603;49.300;8.880;2022-09-21T10:53:27;18.00;95.40
65036;DHT22;51603;49.300;8.880;2022-09-21T10:55:58;17.90;95.40
65036;DHT22;51603;49.300;8.880;2022-09-21T10:58:25;18.10;95.30
65036;DHT22;51603;49.300;8.880;2022-09-21T11:00:52;18.10;93.10
65036;DHT22;51603;49.300;8.880;2022-09-21T11:08:37;18.30;95.00
65036;DHT22;51603;49.300;8.880;2022-09-21T11:14:32;18.00;92.20
65036;DHT22;51603;49.300;8.880;2022-09-21T11:17:11;17.50;92.80
65036;DHT22;51603;49.300;8.880;2022-09-21T11:23:18;17.50;92.00
65036;DHT22;51603;49.300;8.880;2022-09-21T11:28:15;17.30;95.30
65036;DHT22;51603;49.300;8.880;2022-09-21T11:31:08;17.20;92.30
65036;DHT22;51603;49.300;8.880;2022-09-21T11:39:38;17.60;90.80
65036;DHT22;51603;49.300;8.880;2022-09-21T11:42:30;17.40;90.90
65036;DHT22;51603;49.300;8.880;2022-09-21T11:45:00;17.20;90.50
65036;DHT22;51603;49.300;8.880;2022-09-21T11:47:40;17.40;90.80
65036;DHT22;51603;49.300;8.880;2022-09-21T11:53:21;18.20;92.20
65036;DHT22;51603;49.300;8.880;2022-09-21T12:09:41;18.50;81.70
65036;DHT22;51603;49.300;8.880;2022-09-21T12:12:20;18.10;82.70
65036;DHT22;51603;49.300;8.880;2022-09-21T12:15:08;18.10;83.80
65036;DHT22;51603;49.300;8.880;2022-09-21T12:20:57;18.80;83.00
65036;DHT22;51603;49.300;8.880;2022-09-21T12:23:39;19.00;81.30
65036;DHT22;51603;49.300;8.880;2022-09-21T12:26:06;19.30;80.60
65036;DHT22;51603;49.300;8.880;2022-09-21T12:28:47;19.60;78.90
65036;DHT22;51603;49.300;8.880;2022-09-21T12:31:21;20.00;79.20
65036;DHT22;51603;49.300;8.880;2022-09-21T12:33:52;19.90;76.20
65036;DHT22;51603;49.300;8.880;2022-09-21T12:36:33;19.30;76.60
65036;DHT22;51603;49.300;8.880;2022-09-21T12:39:36;18.90;79.80
65036;DHT22;51603;49.300;8.880;2022-09-21T12:42:25;18.50;78.20
65036;DHT22;51603;49.300;8.880;2022-09-21T12:45:02;18.40;74.40
65036;DHT22;51603;49.300;8.880;2022-09-21T12:50:37;19.00;72.60
65036;DHT22;51603;49.300;8.880;2022-09-21T12:53:05;19.40;82.30
65036;DHT22;51603;49.300;8.880;2022-09-21T12:58:38;19.90;76.50
65036;DHT22;51603;49.300;8.880;2022-09-21T13:07:11;19.40;74.00
65036;DHT22;51603;49.300;8.880;2022-09-21T13:09:44;19.10;75.20
65036;DHT22;51603;49.300;8.880;2022-09-21T13:12:14;18.60;75.80
65036;DHT22;51603;49.300;8.880;2022-09-21T13:14:44;18.60;74.90
65036;DHT22;51603;49.300;8.880;2022-09-21T13:17:38;18.70;72.90
65036;DHT22;51603;49.300;8.880;2022-09-21T13:20:26;19.00;70.20
65036;DHT22;51603;49.300;8.880;2022-09-21T13:22:58;19.30;67.40
65036;DHT22;51603;49.300;8.880;2022-09-21T13:25:27;19.30;67.50
65036;DHT22;51603;49.300;8.880;2022-09-21T13:30:43;19.90;69.80
65036;DHT22;51603;49.300;8.880;2022-09-21T13:35:58;20.30;68.70
65036;DHT22;51603;49.300;8.880;2022-09-21T13:41:05;20.30;67.10
65036;DHT22;51603;49.300;8.880;2022-09-21T13:44:00;19.90;67.50
65036;DHT22;51603;49.300;8.880;2022-09-21T13:51:34;18.30;73.20
65036;DHT22;51603;49.300;8.880;2022-09-21T13:54:01;18.20;73.30
65036;DHT22;51603;49.300;8.880;2022-09-21T13:56:27;18.20;74.10
65036;DHT22;51603;49.300;8.880;2022-09-21T13:58:55;18.50;73.50
65036;DHT22;51603;49.300;8.880;2022-09-21T14:01:29;18.80;74.60
65036;DHT22;51603;49.300;8.880;2022-09-21T14:06:49;19.40;67.70
65036;DHT22;51603;49.300;8.880;2022-09-21T14:11:59;20.10;70.20
65036;DHT22;51603;49.300;8.880;2022-09-21T14:14:35;20.30;64.90
65036;DHT22;51603;49.300;8.880;2022-09-21T14:17:35;20.10;65.70
65036;DHT22;51603;49.300;8.880;2022-09-21T14:20:02;19.80;65.20
65036;DHT22;51603;49.300;8.880;2022-09-21T14:22:32;19.40;67.50
65036;DHT22;51603;49.300;8.880;2022-09-21T14:25:26;19.30;70.90
65036;DHT22;51603;49.300;8.880;2022-09-21T14:27:53;19.40;66.40
65036;DHT22;51603;49.300;8.880;2022-09-21T14:30:28;19.70;71.20
65036;DHT22;51603;49.300;8.880;2022-09-21T14:35:26;20.10;66.40
65036;DHT22;51603;49.300;8.880;2022-09-21T14:37:58;20.20;68.20
65036;DHT22;51603;49.300;8.880;2022-09-21T14:40:26;19.90;62.60
65036;DHT22;51603;49.300;8.880;2022-09-21T14:42:57;19.80;65.70
65036;DHT22;51603;49.300;8.880;2022-09-21T14:48:19;19.10;68.50
65036;DHT22;51603;49.300;8.880;2022-09-21T14:51:00;18.70;69.80
65036;DHT22;51603;49.300;8.880;2022-09-21T15:02:21;18.40;77.10
65036;DHT22;51603;49.300;8.880;2022-09-21T15:07:47;19.20;71.60
65036;DHT22;51603;49.300;8.880;2022-09-21T15:19:11;19.70;64.80
65036;DHT22;51603;49.300;8.880;2022-09-21T15:21:41;19.80;63.80
65036;DHT22;51603;49.300;8.880;2022-09-21T15:24:26;19.80;66.30
65036;DHT22;51603;49.300;8.880;2022-09-21T15:27:00;19.50;63.70
65036;DHT22;51603;49.300;8.880;2022-09-21T15:29:28;19.70;65.50
65036;DHT22;51603;49.300;8.880;2022-09-21T15:31:55;19.80;63.20
65036;DHT22;51603;49.300;8.880;2022-09-21T15:34:22;19.90;64.00
65036;DHT22;51603;49.300;8.880;2022-09-21T15:36:48;19.90;63.20
65036;DHT22;51603;49.300;8.880;2022-09-21T15:39:22;19.90;61.90
65036;DHT22;51603;49.300;8.880;2022-09-21T15:41:48;19.90;61.80
65036;DHT22;51603;49.300;8.880;2022-09-21T15:44:23;20.00;64.00
65036;DHT22;51603;49.300;8.880;2022-09-21T15:46:51;20.00;62.00
65036;DHT22;51603;49.300;8.880;2022-09-21T15:49:24;19.90;62.20
65036;DHT22;51603;49.300;8.880;2022-09-21T15:51:58;19.80;60.30
65036;DHT22;51603;49.300;8.880;2022-09-21T15:54:47;19.80;60.30
65036;DHT22;51603;49.300;8.880;2022-09-21T15:57:29;19.70;60.80
65036;DHT22;51603;49.300;8.880;2022-09-21T15:59:59;19.60;61.30
65036;DHT22;51603;49.300;8.880;2022-09-21T16:02:25;19.50;61.10
65036;DHT22;51603;49.300;8.880;2022-09-21T16:04:55;19.50;60.70
65036;DHT22;51603;49.300;8.880;2022-09-21T16:07:35;19.40;60.60
65036;DHT22;51603;49.300;8.880;2022-09-21T16:10:08;19.30;62.00
65036;DHT22;51603;49.300;8.880;2022-09-21T16:12:48;19.30;60.00
65036;DHT22;51603;49.300;8.880;2022-09-21T16:15:22;19.10;61.20
65036;DHT22;51603;49.300;8.880;2022-09-21T16:17:56;19.00;62.00
65036;DHT22;51603;49.300;8.880;2022-09-21T16:20:24;18.90;62.90
65036;DHT22;51603;49.300;8.880;2022-09-21T16:23:04;18.80;62.60
65036;DHT22;51603;49.300;8.880;2022-09-21T16:25:37;18.70;63.60
65036;DHT22;51603;49.300;8.880;2022-09-21T16:28:26;18.70;63.40
65036;DHT22;51603;49.300;8.880;2022-09-21T16:30:54;18.50;63.70
65036;DHT22;51603;49.300;8.880;2022-09-21T16:33:35;18.30;63.80
65036;DHT22;51603;49.300;8.880;2022-09-21T16:38:51;18.30;67.70
65036;DHT22;51603;49.300;8.880;2022-09-21T16:41:35;18.10;67.30
65036;DHT22;51603;49.300;8.880;2022-09-21T16:44:01;17.70;67.40
65036;DHT22;51603;49.300;8.880;2022-09-21T16:46:27;17.40;68.10
65036;DHT22;51603;49.300;8.880;2022-09-21T16:48:53;17.20;69.70
65036;DHT22;51603;49.300;8.880;2022-09-21T16:51:20;16.90;70.50
65036;DHT22;51603;49.300;8.880;2022-09-21T16:53:51;16.70;70.60
65036;DHT22;51603;49.300;8.880;2022-09-21T16:56:17;16.50;71.70
65036;DHT22;51603;49.300;8.880;2022-09-21T16:58:42;16.30;71.20
65036;DHT22;51603;49.300;8.880;2022-09-21T17:01:11;16.20;71.90
65036;DHT22;51603;49.300;8.880;2022-09-21T17:03:38;16.00;73.50
65036;DHT22;51603;49.300;8.880;2022-09-21T17:06:09;15.90;73.20
65036;DHT22;51603;49.300;8.880;2022-09-21T17:08:35;15.70;73.50
65036;DHT22;51603;49.300;8.880;2022-09-21T17:11:02;15.50;74.10
65036;DHT22;51603;49.300;8.880;2022-09-21T17:13:28;15.40;75.70
65036;DHT22;51603;49.300;8.880;2022-09-21T17:15:56;15.30;76.30
65036;DHT22;51603;49.300;8.880;2022-09-21T17:18:22;15.10;77.00
65036;DHT22;51603;49.300;8.880;2022-09-21T17:20:48;15.00;78.90
65036;DHT22;51603;49.300;8.880;2022-09-21T17:23:13;14.80;80.00
65036;DHT22;51603;49.300;8.880;2022-09-21T17:25:39;14.70;81.30
65036;DHT22;51603;49.300;8.880;2022-09-21T17:28:16;14.60;81.40
65036;DHT22;51603;49.300;8.880;2022-09-21T17:30:42;14.40;84.20
65036;DHT22;51603;49.300;8.880;2022-09-21T17:33:10;14.20;85.80
65036;DHT22;51603;49.300;8.880;2022-09-21T17:35:38;14.10;89.00
65036;DHT22;51603;49.300;8.880;2022-09-21T17:38:05;14.00;90.00
65036;DHT22;51603;49.300;8.880;2022-09-21T17:40:32;13.90;90.80
65036;DHT22;51603;49.300;8.880;2022-09-21T17:46:04;13.70;92.20
65036;DHT22;51603;49.300;8.880;2022-09-21T17:48:32;13.60;93.40
65036;DHT22;51603;49.300;8.880;2022-09-21T17:50:58;13.50;94.00
65036;DHT22;51603;49.300;8.880;2022-09-21T17:53:24;13.40;93.50
65036;DHT22;51603;49.300;8.880;2022-09-21T17:56:39;13.30;93.50
65036;DHT22;51603;49.300;8.880;2022-09-21T17:59:27;13.20;93.80
65036;DHT22;51603;49.300;8.880;2022-09-21T18:01:54;13.10;93.80
65036;DHT22;51603;49.300;8.880;2022-09-21T18:04:23;13.00;94.40
65036;DHT22;51603;49.300;8.880;2022-09-21T18:06:51;12.90;95.00
65036;DHT22;51603;49.300;8.880;2022-09-21T18:09:20;12.70;96.10
65036;DHT22;51603;49.300;8.880;2022-09-21T18:12:26;12.70;97.10
65036;DHT22;51603;49.300;8.880;2022-09-21T18:15:05;12.60;97.00
65036;DHT22;51603;49.300;8.880;2022-09-21T18:20:27;12.40;96.70
65036;DHT22;51603;49.300;8.880;2022-09-21T18:23:12;12.40;98.40
65036;DHT22;51603;49.300;8.880;2022-09-21T18:25:42;12.30;98.80
65036;DHT22;51603;49.300;8.880;2022-09-21T18:28:59;12.20;98.90
65036;DHT22;51603;49.300;8.880;2022-09-21T18:31:36;12.10;99.10
65036;DHT22;51603;49.300;8.880;2022-09-21T18:34:21;12.10;99.80
65036;DHT22;51603;49.300;8.880;2022-09-21T18:37:11;12.00;99.90
65036;DHT22;51603;49.300;8.880;2022-09-21T18:42:37;11.80;99.90